Time;durP1;ratioP1;P1;durP2;ratioP2;P2;SDS_P1;SDS_P2;PMS_P1;PMS_P2;Temp;Humidity;BMP_temperature;BMP_pressure;BME280_temperature;BME280_humidity;BME280_pressure;Samples;Min_cycle;Max_cycle;Signal;HPM_P1;HPM_P2
2023/09/13 00:00:15;;;;;;;9.73;6.90;;;;;;;;;;5028248;28;20045;-60
2023/09/13 00:02:41;;;;;;;11.37;6.60;;;;;;;;;;5028823;28;20447;-60
2023/09/13 00:05:08;;;;;;;13.13;7.70;;;;;;;;;;5029083;28;20045;-60
2023/09/13 00:07:34;;;;;;;11.70;8.57;;;;;;;;;;5028595;28;20044;-60
2023/09/13 00:10:00;;;;;;;10.03;8.17;;;;;;;;;;5028574;28;20045;-60
2023/09/13 00:12:26;;;;;;;10.90;8.30;;;;;;;;;;5028529;28;20356;-60
2023/09/13 00:14:52;;;;;;;16.23;8.23;;;;;;;;;;5028401;28;20567;-60
2023/09/13 00:17:18;;;;;;;13.40;8.47;;;;;;;;;;5027388;28;20427;-60
2023/09/13 00:19:44;;;;;;;14.87;8.50;;;;;;;;;;5028322;28;20084;-60
2023/09/13 00:22:10;;;;;;;10.67;8.50;;;;;;;;;;5028173;28;20076;-60
2023/09/13 00:24:36;;;;;;;13.50;7.77;;;;;;;;;;5028511;28;20037;-61
2023/09/13 00:27:02;;;;;;;11.10;8.50;;;;;;;;;;5028564;28;20042;-60
2023/09/13 00:29:31;;;;;;;15.40;9.23;;;;;;;;;;5027634;28;20041;-60
2023/09/13 00:31:57;;;;;;;12.70;9.03;;;;;;;;;;5028546;28;20064;-60
2023/09/13 00:34:23;;;;;;;11.60;9.23;;;;;;;;;;5027993;28;20516;-60
2023/09/13 00:36:49;;;;;;;12.67;9.17;;;;;;;;;;5027344;28;20056;-60
2023/09/13 00:39:15;;;;;;;14.70;10.80;;;;;;;;;;5027051;28;20116;-60
2023/09/13 00:41:41;;;;;;;12.47;9.43;;;;;;;;;;5028335;28;20424;-60
2023/09/13 00:44:07;;;;;;;13.63;9.63;;;;;;;;;;5026474;28;20162;-60
2023/09/13 00:46:33;;;;;;;16.90;11.50;;;;;;;;;;5027742;28;20045;-60
2023/09/13 00:49:00;;;;;;;17.50;10.73;;;;;;;;;;5027854;28;20672;-60
2023/09/13 00:51:27;;;;;;;18.77;11.30;;;;;;;;;;5026788;28;20099;-59
2023/09/13 00:53:53;;;;;;;24.00;13.63;;;;;;;;;;5026016;28;20562;-60
2023/09/13 00:56:19;;;;;;;28.57;15.40;;;;;;;;;;5027322;28;20084;-60
2023/09/13 00:58:47;;;;;;;19.97;12.43;;;;;;;;;;5028027;28;20054;-60
2023/09/13 01:01:13;;;;;;;32.20;16.63;;;;;;;;;;5027311;28;20081;-60
2023/09/13 01:03:40;;;;;;;23.63;14.67;;;;;;;;;;5027802;28;20081;-60
2023/09/13 01:06:09;;;;;;;19.13;13.80;;;;;;;;;;5027693;28;20514;-59
2023/09/13 01:08:35;;;;;;;24.63;14.70;;;;;;;;;;5026854;28;20417;-60
2023/09/13 01:11:01;;;;;;;35.77;16.20;;;;;;;;;;5027691;28;20483;-60
2023/09/13 01:13:27;;;;;;;33.23;15.77;;;;;;;;;;5027382;28;20503;-60
2023/09/13 01:16:00;;;;;;;29.83;15.13;;;;;;;;;;5027480;28;20052;-60
2023/09/13 01:18:30;;;;;;;28.98;14.15;;;;;;;;;;5027490;28;20042;-61
2023/09/13 01:21:09;;;;;;;28.23;14.67;;;;;;;;;;5027651;28;20579;-60
2023/09/13 01:23:41;;;;;;;27.97;13.77;;;;;;;;;;5027711;28;20488;-60
2023/09/13 01:26:13;;;;;;;26.53;14.47;;;;;;;;;;5026350;28;20176;-60
2023/09/13 01:28:41;;;;;;;24.37;12.70;;;;;;;;;;5027213;28;20435;-60
2023/09/13 01:31:08;;;;;;;31.97;13.43;;;;;;;;;;5027653;28;20464;-60
2023/09/13 01:33:34;;;;;;;25.33;13.77;;;;;;;;;;5027640;28;20103;-59
2023/09/13 01:36:00;;;;;;;26.17;12.70;;;;;;;;;;5027615;28;20053;-60
2023/09/13 01:38:26;;;;;;;21.63;11.60;;;;;;;;;;5027539;28;20064;-60
2023/09/13 01:40:53;;;;;;;22.73;11.50;;;;;;;;;;5027559;28;20053;-60
2023/09/13 01:43:20;;;;;;;27.33;12.10;;;;;;;;;;5027077;28;20049;-60
2023/09/13 01:45:47;;;;;;;21.90;11.07;;;;;;;;;;5027578;28;20488;-60
2023/09/13 01:48:13;;;;;;;17.40;10.03;;;;;;;;;;5027451;28;20504;-60
2023/09/13 01:50:40;;;;;;;24.73;11.10;;;;;;;;;;5027162;28;20037;-59
2023/09/13 01:53:06;;;;;;;17.60;10.73;;;;;;;;;;5030236;28;20049;-60
2023/09/13 01:55:36;;;;;;;16.80;9.23;;;;;;;;;;5030878;28;20195;-60
2023/09/13 01:58:02;;;;;;;19.03;10.30;;;;;;;;;;5030827;28;20046;-60
2023/09/13 02:00:28;;;;;;;18.23;9.57;;;;;;;;;;5030224;28;20049;-60
2023/09/13 02:02:54;;;;;;;18.77;8.87;;;;;;;;;;5031036;28;20052;-60
2023/09/13 02:05:20;;;;;;;21.77;9.00;;;;;;;;;;5031500;28;20136;-60
2023/09/13 02:07:46;;;;;;;14.43;7.93;;;;;;;;;;5030663;28;20048;-60
2023/09/13 02:10:12;;;;;;;12.07;7.03;;;;;;;;;;5030626;28;20041;-60
2023/09/13 02:12:38;;;;;;;22.03;7.87;;;;;;;;;;5030575;28;20041;-60
2023/09/13 02:15:04;;;;;;;14.33;7.20;;;;;;;;;;5030070;28;20056;-60
2023/09/13 02:17:32;;;;;;;23.13;7.13;;;;;;;;;;5030848;28;20045;-60
2023/09/13 02:19:58;;;;;;;14.87;7.27;;;;;;;;;;5030387;28;20041;-60
2023/09/13 02:22:24;;;;;;;17.43;8.40;;;;;;;;;;5029595;28;20043;-60
2023/09/13 02:24:50;;;;;;;15.50;6.77;;;;;;;;;;5030463;28;20045;-60
2023/09/13 02:27:16;;;;;;;19.17;7.10;;;;;;;;;;5030494;28;20575;-60
2023/09/13 02:29:42;;;;;;;13.10;6.53;;;;;;;;;;5030420;28;20084;-60
2023/09/13 02:32:08;;;;;;;15.80;6.53;;;;;;;;;;5030502;28;20052;-60
2023/09/13 02:34:34;;;;;;;16.37;6.50;;;;;;;;;;5029795;28;20080;-60
2023/09/13 02:37:00;;;;;;;15.50;6.40;;;;;;;;;;5030164;28;20076;-60
2023/09/13 02:39:36;;;;;;;14.70;5.70;;;;;;;;;;5030200;28;20503;-60
2023/09/13 02:42:05;;;;;;;16.73;5.60;;;;;;;;;;5029141;28;20053;-60
2023/09/13 02:44:31;;;;;;;11.77;5.40;;;;;;;;;;5029455;28;20522;-60
2023/09/13 02:46:57;;;;;;;16.23;5.13;;;;;;;;;;5029338;28;20057;-60
2023/09/13 02:49:24;;;;;;;13.23;4.80;;;;;;;;;;5029503;28;20063;-60
2023/09/13 02:51:51;;;;;;;11.97;5.53;;;;;;;;;;5030116;28;20054;-59
2023/09/13 02:54:17;;;;;;;11.80;4.37;;;;;;;;;;5029952;28;20112;-60
2023/09/13 02:56:43;;;;;;;16.00;4.37;;;;;;;;;;5029790;28;20523;-60
2023/09/13 02:59:09;;;;;;;10.20;4.37;;;;;;;;;;5029299;28;20045;-60
2023/09/13 03:01:35;;;;;;;9.63;3.67;;;;;;;;;;5029611;28;20069;-60
2023/09/13 03:04:01;;;;;;;10.33;4.03;;;;;;;;;;5029706;28;20586;-60
2023/09/13 03:06:27;;;;;;;10.73;4.87;;;;;;;;;;5030106;28;20144;-59
2023/09/13 03:08:53;;;;;;;8.53;4.10;;;;;;;;;;5029763;28;20052;-60
2023/09/13 03:11:19;;;;;;;10.87;4.80;;;;;;;;;;5029063;28;20049;-60
2023/09/13 03:13:45;;;;;;;12.73;4.63;;;;;;;;;;5029376;28;20172;-60
2023/09/13 03:16:15;;;;;;;8.87;3.60;;;;;;;;;;5029388;28;20045;-60
2023/09/13 03:18:42;;;;;;;16.57;5.53;;;;;;;;;;5029858;28;20084;-60
2023/09/13 03:21:08;;;;;;;10.97;5.00;;;;;;;;;;5028588;28;20475;-60
2023/09/13 03:23:37;;;;;;;18.47;4.67;;;;;;;;;;5029104;28;20550;-60
2023/09/13 03:26:09;;;;;;;9.33;4.10;;;;;;;;;;5029238;28;20511;-59
2023/09/13 03:28:35;;;;;;;10.45;3.97;;;;;;;;;;5029307;28;20087;-59
2023/09/13 03:31:01;;;;;;;11.87;3.97;;;;;;;;;;5028971;28;20050;-60
2023/09/13 03:33:27;;;;;;;13.97;4.73;;;;;;;;;;5029433;28;20050;-60
2023/09/13 03:35:53;;;;;;;11.30;4.40;;;;;;;;;;5028688;28;20046;-59
2023/09/13 03:38:19;;;;;;;11.40;3.83;;;;;;;;;;5029096;28;20051;-60
2023/09/13 03:40:45;;;;;;;12.00;3.63;;;;;;;;;;5028799;28;20092;-60
2023/09/13 03:43:11;;;;;;;8.70;4.20;;;;;;;;;;5028692;28;20124;-60
2023/09/13 03:45:37;;;;;;;10.97;4.37;;;;;;;;;;5028848;28;20447;-60
2023/09/13 03:48:03;;;;;;;10.53;3.90;;;;;;;;;;5028842;28;20042;-60
2023/09/13 03:50:29;;;;;;;11.73;4.27;;;;;;;;;;5028766;28;20038;-60
2023/09/13 03:52:55;;;;;;;17.83;5.00;;;;;;;;;;5028952;28;20559;-60
2023/09/13 03:55:21;;;;;;;15.33;5.00;;;;;;;;;;5028126;28;20053;-60
2023/09/13 03:57:47;;;;;;;12.40;4.83;;;;;;;;;;5027239;28;20136;-60
2023/09/13 04:00:15;;;;;;;16.00;4.93;;;;;;;;;;5028749;28;20045;-61
2023/09/13 04:02:41;;;;;;;17.13;4.87;;;;;;;;;;5029084;28;20381;-61
2023/09/13 04:05:07;;;;;;;15.73;5.30;;;;;;;;;;5028121;28;20140;-61
2023/09/13 04:07:33;;;;;;;16.20;5.57;;;;;;;;;;5028962;28;20511;-61
2023/09/13 04:09:59;;;;;;;20.23;5.40;;;;;;;;;;5028392;28;20045;-61
2023/09/13 04:12:25;;;;;;;23.70;7.50;;;;;;;;;;5028725;28;20109;-61
2023/09/13 04:14:52;;;;;;;17.43;6.30;;;;;;;;;;5027655;28;20087;-61
2023/09/13 04:17:18;;;;;;;22.63;7.13;;;;;;;;;;5027291;28;20483;-61
2023/09/13 04:19:44;;;;;;;20.63;6.37;;;;;;;;;;5028642;28;20081;-60
2023/09/13 04:22:13;;;;;;;21.50;7.00;;;;;;;;;;5028605;28;20059;-61
2023/09/13 04:24:39;;;;;;;19.70;7.10;;;;;;;;;;5028511;28;20496;-61
2023/09/13 04:27:05;;;;;;;20.93;6.40;;;;;;;;;;5026990;28;20527;-61
2023/09/13 04:29:31;;;;;;;23.27;7.20;;;;;;;;;;5028108;28;20511;-61
2023/09/13 04:31:57;;;;;;;15.50;6.43;;;;;;;;;;5027384;28;20045;-61
2023/09/13 04:34:23;;;;;;;17.60;7.37;;;;;;;;;;5027969;28;20053;-61
2023/09/13 04:36:49;;;;;;;18.87;7.30;;;;;;;;;;5027281;28;20075;-60
2023/09/13 04:39:15;;;;;;;20.97;6.63;;;;;;;;;;5028341;28;20088;-61
2023/09/13 04:41:41;;;;;;;19.70;7.17;;;;;;;;;;5027495;28;20089;-61
2023/09/13 04:44:07;;;;;;;25.87;8.37;;;;;;;;;;5028177;28;20044;-61
2023/09/13 04:46:33;;;;;;;16.80;6.57;;;;;;;;;;5027740;28;20500;-61
2023/09/13 04:48:59;;;;;;;19.93;7.17;;;;;;;;;;5028169;28;20045;-61
2023/09/13 04:51:25;;;;;;;22.97;8.37;;;;;;;;;;5028094;28;20095;-61
2023/09/13 04:53:51;;;;;;;17.30;7.57;;;;;;;;;;5028137;28;20049;-61
2023/09/13 04:56:17;;;;;;;18.67;6.67;;;;;;;;;;5026642;28;20571;-61
2023/09/13 04:58:43;;;;;;;19.67;8.27;;;;;;;;;;5028103;28;20045;-61
2023/09/13 05:01:09;;;;;;;44.73;10.13;;;;;;;;;;5027992;28;20514;-63
2023/09/13 05:03:35;;;;;;;90.63;13.10;;;;;;;;;;5028452;28;20045;-63
2023/09/13 05:06:01;;;;;;;23.60;9.23;;;;;;;;;;5027926;28;20419;-63
2023/09/13 05:08:27;;;;;;;29.97;10.80;;;;;;;;;;5028103;28;20128;-63
2023/09/13 05:10:54;;;;;;;45.40;15.40;;;;;;;;;;5026441;28;20462;-63
2023/09/13 05:13:20;;;;;;;57.57;14.97;;;;;;;;;;5022060;28;20056;-62
2023/09/13 05:15:46;;;;;;;35.17;11.67;;;;;;;;;;5025977;28;20045;-62
2023/09/13 05:18:12;;;;;;;57.87;15.30;;;;;;;;;;5028142;28;20056;-63
2023/09/13 05:20:38;;;;;;;54.77;12.83;;;;;;;;;;5027949;28;20060;-63
2023/09/13 05:23:04;;;;;;;279.70;25.00;;;;;;;;;;5027922;28;20056;-63
2023/09/13 05:25:30;;;;;;;246.83;20.37;;;;;;;;;;5028898;28;20543;-63
2023/09/13 05:27:56;;;;;;;213.97;14.60;;;;;;;;;;5030310;28;20116;-63
2023/09/13 05:30:22;;;;;;;37.30;5.70;;;;;;;;;;5031705;28;20491;-63
2023/09/13 05:32:49;;;;;;;33.07;4.77;;;;;;;;;;5031118;28;20944;-63
2023/09/13 05:35:16;;;;;;;70.90;6.63;;;;;;;;;;5031440;28;20597;-63
2023/09/13 05:37:43;;;;;;;67.90;7.63;;;;;;;;;;5031734;28;20508;-63
2023/09/13 05:40:09;;;;;;;33.70;7.03;;;;;;;;;;5031124;28;20072;-63
2023/09/13 05:42:35;;;;;;;50.27;6.00;;;;;;;;;;5029975;28;20056;-63
2023/09/13 05:45:01;;;;;;;33.30;6.60;;;;;;;;;;5027631;28;20033;-63
2023/09/13 05:47:27;;;;;;;19.90;5.07;;;;;;;;;;5017787;28;20049;-64
2023/09/13 05:49:53;;;;;;;31.23;5.97;;;;;;;;;;5029592;28;20168;-63
2023/09/13 05:52:19;;;;;;;31.37;6.53;;;;;;;;;;5031326;28;20052;-63
2023/09/13 05:54:45;;;;;;;20.20;4.87;;;;;;;;;;5030411;28;20091;-63
2023/09/13 05:57:11;;;;;;;20.47;4.40;;;;;;;;;;5030940;28;20049;-63
2023/09/13 05:59:39;;;;;;;22.83;4.40;;;;;;;;;;5030765;28;20053;-63
2023/09/13 06:02:06;;;;;;;19.13;4.57;;;;;;;;;;5030835;28;20092;-63
2023/09/13 06:04:32;;;;;;;21.47;4.60;;;;;;;;;;5031249;28;20046;-63
2023/09/13 06:06:58;;;;;;;15.73;5.00;;;;;;;;;;5031010;28;20060;-63
2023/09/13 06:09:24;;;;;;;19.07;4.20;;;;;;;;;;5030195;28;20041;-63
2023/09/13 06:11:50;;;;;;;17.43;4.10;;;;;;;;;;5030259;28;20422;-63
2023/09/13 06:14:18;;;;;;;14.43;3.37;;;;;;;;;;5030903;28;20053;-63
2023/09/13 06:16:44;;;;;;;11.93;3.27;;;;;;;;;;5030570;28;20049;-63
2023/09/13 06:19:10;;;;;;;14.03;3.07;;;;;;;;;;5030490;28;20056;-63
2023/09/13 06:21:36;;;;;;;22.50;3.60;;;;;;;;;;5029836;28;20049;-63
2023/09/13 06:24:02;;;;;;;29.93;4.63;;;;;;;;;;5025304;28;20050;-63
2023/09/13 06:26:28;;;;;;;16.83;3.70;;;;;;;;;;5022003;28;20037;-63
2023/09/13 06:28:54;;;;;;;27.13;4.27;;;;;;;;;;5030113;28;20107;-63
2023/09/13 06:31:20;;;;;;;10.37;3.33;;;;;;;;;;5030243;28;20451;-63
2023/09/13 06:33:46;;;;;;;17.57;2.93;;;;;;;;;;5030106;28;20056;-63
2023/09/13 06:36:12;;;;;;;14.50;2.90;;;;;;;;;;5030226;28;20135;-63
2023/09/13 06:38:38;;;;;;;16.00;3.80;;;;;;;;;;5028369;28;20571;-63
2023/09/13 06:41:04;;;;;;;10.03;2.83;;;;;;;;;;5029853;28;20062;-62
2023/09/13 06:43:30;;;;;;;19.93;4.73;;;;;;;;;;5030503;28;20049;-63
2023/09/13 06:45:56;;;;;;;14.93;3.80;;;;;;;;;;5029801;28;20051;-63
2023/09/13 06:48:23;;;;;;;9.03;3.40;;;;;;;;;;5030001;28;20475;-63
2023/09/13 06:50:49;;;;;;;11.73;3.97;;;;;;;;;;5030110;28;20041;-63
2023/09/13 06:53:15;;;;;;;13.27;3.77;;;;;;;;;;5029835;28;20155;-63
2023/09/13 06:55:41;;;;;;;15.23;4.07;;;;;;;;;;5029181;28;20136;-63
2023/09/13 06:58:08;;;;;;;8.83;3.60;;;;;;;;;;5028976;28;20056;-63
2023/09/13 07:00:34;;;;;;;16.13;4.00;;;;;;;;;;5029732;28;20053;-63
2023/09/13 07:03:02;;;;;;;11.53;4.37;;;;;;;;;;5030230;28;20049;-63
2023/09/13 07:05:28;;;;;;;18.33;5.67;;;;;;;;;;5028555;28;20063;-64
2023/09/13 07:07:54;;;;;;;11.73;4.10;;;;;;;;;;5029570;28;20416;-63
2023/09/13 07:10:20;;;;;;;9.83;4.33;;;;;;;;;;5030116;28;20045;-64
2023/09/13 07:12:47;;;;;;;8.90;3.23;;;;;;;;;;5029713;28;20045;-64
2023/09/13 07:15:12;;;;;;;22.13;5.40;;;;;;;;;;5028880;28;20041;-62
2023/09/13 07:17:38;;;;;;;16.10;5.53;;;;;;;;;;5029456;28;20088;-62
2023/09/13 07:20:05;;;;;;;17.10;5.37;;;;;;;;;;5025534;28;20044;-63
2023/09/13 07:22:31;;;;;;;12.50;3.83;;;;;;;;;;5028347;28;20037;-63
2023/09/13 07:24:57;;;;;;;21.57;7.37;;;;;;;;;;5029778;28;20531;-63
2023/09/13 07:27:23;;;;;;;18.33;5.77;;;;;;;;;;5029602;28;20079;-63
2023/09/13 07:29:49;;;;;;;23.93;7.07;;;;;;;;;;5029651;28;20042;-63
2023/09/13 07:32:17;;;;;;;23.83;6.77;;;;;;;;;;5029155;28;20054;-63
2023/09/13 07:34:43;;;;;;;14.57;5.03;;;;;;;;;;5029430;28;20148;-65
2023/09/13 07:37:09;;;;;;;13.73;5.30;;;;;;;;;;5029502;28;20128;-64
2023/09/13 07:39:36;;;;;;;12.77;5.00;;;;;;;;;;5029729;28;20132;-64
2023/09/13 07:42:03;;;;;;;29.33;7.53;;;;;;;;;;5029204;28;20095;-63
2023/09/13 07:44:29;;;;;;;16.13;4.23;;;;;;;;;;5027921;28;20141;-63
2023/09/13 07:46:55;;;;;;;17.13;4.53;;;;;;;;;;5028389;28;20045;-65
2023/09/13 07:49:21;;;;;;;17.13;5.80;;;;;;;;;;5028491;28;20125;-64
2023/09/13 07:51:47;;;;;;;16.00;5.13;;;;;;;;;;5028843;28;20052;-64
2023/09/13 07:54:13;;;;;;;21.43;5.00;;;;;;;;;;5028153;28;20041;-63
2023/09/13 07:56:39;;;;;;;15.17;4.00;;;;;;;;;;5027351;28;20420;-63
2023/09/13 07:59:07;;;;;;;17.60;4.23;;;;;;;;;;5027539;28;20041;-63
2023/09/13 08:01:33;;;;;;;10.50;3.70;;;;;;;;;;5028454;28;20042;-63
2023/09/13 08:03:59;;;;;;;22.67;5.03;;;;;;;;;;5028866;28;20042;-64
2023/09/13 08:06:25;;;;;;;15.70;3.50;;;;;;;;;;5028416;28;20115;-64
2023/09/13 08:08:52;;;;;;;20.50;5.00;;;;;;;;;;5027263;28;20038;-65
2023/09/13 08:11:18;;;;;;;14.90;3.63;;;;;;;;;;5023160;28;20046;-64
2023/09/13 08:13:44;;;;;;;17.83;3.90;;;;;;;;;;5008479;28;20468;-65
2023/09/13 08:16:10;;;;;;;16.83;4.60;;;;;;;;;;5024187;28;20061;-64
2023/09/13 08:18:36;;;;;;;18.93;5.90;;;;;;;;;;5027347;28;20077;-64
2023/09/13 08:21:03;;;;;;;18.80;5.03;;;;;;;;;;5027955;28;20099;-64
2023/09/13 08:23:29;;;;;;;18.83;4.90;;;;;;;;;;5060557;28;20100;-62
2023/09/13 08:25:55;;;;;;;15.20;3.80;;;;;;;;;;5027906;28;20089;-62
2023/09/13 08:28:21;;;;;;;21.33;5.37;;;;;;;;;;5027532;28;20155;-62
2023/09/13 08:30:49;;;;;;;10.33;3.27;;;;;;;;;;5028300;28;20037;-63
2023/09/13 08:33:16;;;;;;;18.77;4.53;;;;;;;;;;5028114;28;20046;-63
2023/09/13 08:35:42;;;;;;;13.57;3.70;;;;;;;;;;5025394;28;20057;-63
2023/09/13 08:38:08;;;;;;;15.97;3.73;;;;;;;;;;5026855;28;20046;-63
2023/09/13 08:40:40;;;;;;;14.30;3.43;;;;;;;;;;5028036;28;20068;-63
2023/09/13 08:43:06;;;;;;;13.00;3.57;;;;;;;;;;5027845;28;20053;-63
2023/09/13 08:45:35;;;;;;;16.33;4.20;;;;;;;;;;5028485;28;20044;-63
2023/09/13 08:48:01;;;;;;;15.90;4.03;;;;;;;;;;5026656;28;20551;-63
2023/09/13 08:50:28;;;;;;;12.10;3.87;;;;;;;;;;5027712;28;20049;-63
2023/09/13 08:52:57;;;;;;;18.90;3.87;;;;;;;;;;5027260;28;20049;-62
2023/09/13 08:55:23;;;;;;;15.10;3.90;;;;;;;;;;5040785;28;20040;-63
2023/09/13 08:57:49;;;;;;;16.20;3.83;;;;;;;;;;5033854;28;20511;-63
2023/09/13 09:00:15;;;;;;;13.60;3.67;;;;;;;;;;5010804;28;20128;-63
2023/09/13 09:02:42;;;;;;;13.23;3.70;;;;;;;;;;5044909;28;20487;-63
2023/09/13 09:05:12;;;;;;;15.37;3.23;;;;;;;;;;5047916;28;20149;-63
2023/09/13 09:07:39;;;;;;;19.53;4.10;;;;;;;;;;5036420;28;20103;-63
2023/09/13 09:10:11;;;;;;;14.50;3.87;;;;;;;;;;5034523;28;20087;-63
2023/09/13 09:12:37;;;;;;;12.20;3.10;;;;;;;;;;5037622;28;20041;-62
2023/09/13 09:15:04;;;;;;;11.67;3.10;;;;;;;;;;5043644;28;20122;-62
2023/09/13 09:17:30;;;;;;;11.43;2.83;;;;;;;;;;5048504;28;20511;-62
2023/09/13 09:19:56;;;;;;;10.77;2.77;;;;;;;;;;5053483;28;20084;-62
2023/09/13 09:22:22;;;;;;;9.07;2.90;;;;;;;;;;5054124;28;20049;-62
2023/09/13 09:24:48;;;;;;;8.67;3.33;;;;;;;;;;5053871;28;20204;-62
2023/09/13 09:27:14;;;;;;;13.80;3.00;;;;;;;;;;5054061;28;20543;-62
2023/09/13 09:29:40;;;;;;;12.77;2.90;;;;;;;;;;5035083;28;20045;-62
2023/09/13 09:32:08;;;;;;;9.07;2.93;;;;;;;;;;5034754;28;20092;-62
2023/09/13 09:34:37;;;;;;;10.70;2.63;;;;;;;;;;5034013;28;20107;-62
2023/09/13 09:37:04;;;;;;;10.90;2.83;;;;;;;;;;5034203;28;20041;-62
2023/09/13 09:39:30;;;;;;;7.63;2.20;;;;;;;;;;5033935;28;20515;-62
2023/09/13 09:41:59;;;;;;;15.13;3.17;;;;;;;;;;5033817;28;20053;-62
2023/09/13 09:44:28;;;;;;;10.67;2.60;;;;;;;;;;5034635;28;20049;-61
2023/09/13 09:46:55;;;;;;;12.03;2.67;;;;;;;;;;5033837;28;20060;-61
2023/09/13 09:49:21;;;;;;;11.17;3.00;;;;;;;;;;5033374;28;20579;-61
2023/09/13 09:51:48;;;;;;;10.73;2.50;;;;;;;;;;5033710;28;20156;-62
2023/09/13 09:54:14;;;;;;;8.60;2.67;;;;;;;;;;5034117;28;20103;-62
2023/09/13 09:56:41;;;;;;;12.67;2.30;;;;;;;;;;5033210;28;20046;-61
2023/09/13 09:59:07;;;;;;;9.50;2.77;;;;;;;;;;5032672;28;20679;-62
2023/09/13 10:01:33;;;;;;;11.07;2.47;;;;;;;;;;5032344;28;20076;-62
2023/09/13 10:04:09;;;;;;;7.80;2.40;;;;;;;;;;5033780;28;20073;-61
2023/09/13 10:06:35;;;;;;;8.27;2.43;;;;;;;;;;5034114;28;20037;-62
2023/09/13 10:09:01;;;;;;;11.50;2.80;;;;;;;;;;5033441;28;20052;-62
2023/09/13 10:11:27;;;;;;;12.63;3.60;;;;;;;;;;5030636;28;20042;-61
2023/09/13 10:13:53;;;;;;;13.17;2.37;;;;;;;;;;5030490;28;20084;-61
2023/09/13 10:16:19;;;;;;;14.67;3.20;;;;;;;;;;5030697;28;20052;-61
2023/09/13 10:18:49;;;;;;;9.67;2.07;;;;;;;;;;5029713;28;20045;-61
2023/09/13 10:21:18;;;;;;;11.30;2.77;;;;;;;;;;5030535;28;20262;-61
2023/09/13 10:23:45;;;;;;;5.97;1.70;;;;;;;;;;5029819;28;20049;-61
2023/09/13 10:26:17;;;;;;;10.53;2.67;;;;;;;;;;5029074;28;20479;-61
2023/09/13 10:28:45;;;;;;;9.70;2.67;;;;;;;;;;5029940;28;20049;-61
2023/09/13 10:31:15;;;;;;;7.57;2.00;;;;;;;;;;5029771;28;20045;-61
2023/09/13 10:33:44;;;;;;;7.60;2.23;;;;;;;;;;5030547;28;20124;-61
2023/09/13 10:36:13;;;;;;;9.13;2.50;;;;;;;;;;5030109;28;20053;-61
2023/09/13 10:38:45;;;;;;;10.57;2.13;;;;;;;;;;5029316;28;20163;-61
2023/09/13 10:41:16;;;;;;;8.52;2.10;;;;;;;;;;5029435;28;20290;-62
2023/09/13 10:43:43;;;;;;;9.27;2.20;;;;;;;;;;5032554;28;20052;-61
2023/09/13 10:46:10;;;;;;;7.37;2.20;;;;;;;;;;5030970;28;20037;-61
2023/09/13 10:48:36;;;;;;;6.00;1.90;;;;;;;;;;5041253;28;20044;-61
2023/09/13 10:51:04;;;;;;;10.50;2.40;;;;;;;;;;5031609;28;20531;-61
2023/09/13 10:53:30;;;;;;;10.00;2.67;;;;;;;;;;5045801;28;20622;-61
2023/09/13 10:55:56;;;;;;;11.07;2.77;;;;;;;;;;5038837;28;20045;-62
2023/09/13 10:58:23;;;;;;;14.07;3.10;;;;;;;;;;5029661;28;20048;-61
2023/09/13 11:00:54;;;;;;;8.63;2.70;;;;;;;;;;5030106;28;20555;-61
2023/09/13 11:03:21;;;;;;;14.70;3.43;;;;;;;;;;5032092;28;20045;-61
2023/09/13 11:05:49;;;;;;;10.07;2.90;;;;;;;;;;5043203;28;20049;-61
2023/09/13 11:08:31;;;;;;;10.47;2.93;;;;;;;;;;5041679;28;20471;-61
2023/09/13 11:11:07;;;;;;;10.18;2.60;;;;;;;;;;5029228;28;20045;-61
2023/09/13 11:13:33;;;;;;;12.63;3.13;;;;;;;;;;5029410;28;20451;-61
2023/09/13 11:16:03;;;;;;;12.13;2.77;;;;;;;;;;5028036;28;20045;-61
2023/09/13 11:18:29;;;;;;;7.47;2.00;;;;;;;;;;5029248;28;20283;-61
2023/09/13 11:20:56;;;;;;;8.10;2.27;;;;;;;;;;5029544;28;20052;-61
2023/09/13 11:23:23;;;;;;;5.77;2.10;;;;;;;;;;5028184;28;20534;-60
2023/09/13 11:25:53;;;;;;;9.13;1.97;;;;;;;;;;5028596;28;20044;-61
2023/09/13 11:28:37;;;;;;;8.00;1.97;;;;;;;;;;5027828;28;20041;-60
2023/09/13 11:31:03;;;;;;;8.47;2.17;;;;;;;;;;5028487;28;20049;-60
2023/09/13 11:33:30;;;;;;;7.37;2.43;;;;;;;;;;5028388;28;20115;-61
2023/09/13 11:35:57;;;;;;;8.13;2.00;;;;;;;;;;5028376;28;20045;-60
2023/09/13 11:38:23;;;;;;;9.83;2.30;;;;;;;;;;5028086;28;20123;-60
2023/09/13 11:40:50;;;;;;;7.67;2.07;;;;;;;;;;5028350;28;20104;-60
2023/09/13 11:43:21;;;;;;;5.33;2.53;;;;;;;;;;5028904;28;20057;-60
2023/09/13 11:45:49;;;;;;;7.50;2.43;;;;;;;;;;5028778;28;20049;-60
2023/09/13 11:48:19;;;;;;;7.17;2.50;;;;;;;;;;5028204;28;20093;-60
2023/09/13 11:50:48;;;;;;;7.27;2.37;;;;;;;;;;5028646;28;20057;-60
2023/09/13 11:53:20;;;;;;;5.17;2.40;;;;;;;;;;5028884;28;20133;-60
2023/09/13 11:55:53;;;;;;;6.78;2.05;;;;;;;;;;5028525;28;20051;-59
2023/09/13 11:58:19;;;;;;;6.40;2.72;;;;;;;;;;5028155;28;20057;-60
2023/09/13 12:00:45;;;;;;;5.20;1.90;;;;;;;;;;5028575;28;20064;-59
2023/09/13 12:03:17;;;;;;;6.70;2.43;;;;;;;;;;5028594;28;20056;-60
2023/09/13 12:05:43;;;;;;;6.40;2.50;;;;;;;;;;5028450;28;20054;-60
2023/09/13 12:08:23;;;;;;;7.80;2.53;;;;;;;;;;5028602;28;20538;-60
2023/09/13 12:10:50;;;;;;;8.47;2.77;;;;;;;;;;5028577;28;20163;-60
2023/09/13 12:13:16;;;;;;;5.80;2.50;;;;;;;;;;5027778;28;20056;-60
2023/09/13 12:15:58;;;;;;;5.67;2.10;;;;;;;;;;5028271;28;20053;-60
2023/09/13 12:18:24;;;;;;;7.95;2.13;;;;;;;;;;5028274;28;20056;-60
2023/09/13 12:20:50;;;;;;;7.47;2.60;;;;;;;;;;5028524;28;20084;-60
2023/09/13 12:23:17;;;;;;;6.03;2.53;;;;;;;;;;5028188;28;20053;-60
2023/09/13 12:25:43;;;;;;;6.30;2.40;;;;;;;;;;5027671;28;20048;-60
2023/09/13 12:28:09;;;;;;;6.63;2.80;;;;;;;;;;5028046;28;20504;-60
2023/09/13 12:30:35;;;;;;;5.73;3.20;;;;;;;;;;5027921;28;20053;-60
2023/09/13 12:33:03;;;;;;;6.10;2.57;;;;;;;;;;5028289;28;20053;-60
2023/09/13 12:35:30;;;;;;;4.20;2.33;;;;;;;;;;5027027;28;20045;-60
2023/09/13 12:38:00;;;;;;;5.27;2.47;;;;;;;;;;5027995;28;20049;-60
2023/09/13 12:40:29;;;;;;;4.95;2.60;;;;;;;;;;5027790;28;20439;-60
2023/09/13 12:42:58;;;;;;;4.30;2.13;;;;;;;;;;5027716;28;20092;-60
2023/09/13 12:45:28;;;;;;;7.63;2.60;;;;;;;;;;5028243;28;20103;-60
2023/09/13 12:47:55;;;;;;;6.85;2.53;;;;;;;;;;5027946;28;20056;-60
2023/09/13 12:50:21;;;;;;;5.43;2.60;;;;;;;;;;5027296;28;20492;-60
2023/09/13 12:52:51;;;;;;;3.33;2.00;;;;;;;;;;5027879;28;20563;-60
2023/09/13 12:55:17;;;;;;;4.07;2.22;;;;;;;;;;5027667;28;20045;-60
2023/09/13 12:57:43;;;;;;;4.00;1.70;;;;;;;;;;5027885;28;20518;-60
2023/09/13 13:00:12;;;;;;;6.40;1.75;;;;;;;;;;5027375;28;20595;-60
2023/09/13 13:02:39;;;;;;;5.75;2.40;;;;;;;;;;5028164;28;20068;-60
2023/09/13 13:05:05;;;;;;;5.00;2.08;;;;;;;;;;5027800;28;20046;-60
2023/09/13 13:07:33;;;;;;;3.08;1.33;;;;;;;;;;5028019;28;20188;-60
2023/09/13 13:10:06;;;;;;;3.15;1.58;;;;;;;;;;5027168;28;20053;-60
2023/09/13 13:12:32;;;;;;;3.60;1.90;;;;;;;;;;5027937;28;20049;-60
2023/09/13 13:14:59;;;;;;;5.10;1.52;;;;;;;;;;5027553;28;20041;-60
2023/09/13 13:17:33;;;;;;;5.57;1.58;;;;;;;;;;5027334;28;20046;-61
2023/09/13 13:20:04;;;;;;;7.25;1.70;;;;;;;;;;5027228;28;20377;-62
2023/09/13 13:22:31;;;;;;;5.38;2.00;;;;;;;;;;5027480;28;20097;-58
2023/09/13 13:24:57;;;;;;;3.60;1.95;;;;;;;;;;5027535;28;20049;-58
2023/09/13 13:27:23;;;;;;;3.75;1.52;;;;;;;;;;5027855;28;20042;-59
2023/09/13 13:29:49;;;;;;;3.80;1.65;;;;;;;;;;5027358;28;20095;-59
2023/09/13 13:32:15;;;;;;;4.07;1.70;;;;;;;;;;5027225;28;20057;-58
2023/09/13 13:34:41;;;;;;;5.15;1.60;;;;;;;;;;5027235;28;20516;-59
2023/09/13 13:37:07;;;;;;;4.00;1.95;;;;;;;;;;5027281;28;20554;-59
2023/09/13 13:39:33;;;;;;;5.82;1.67;;;;;;;;;;5027151;28;20065;-59
2023/09/13 13:41:59;;;;;;;4.82;1.73;;;;;;;;;;5027397;28;20360;-60
2023/09/13 13:44:25;;;;;;;4.85;1.95;;;;;;;;;;5027034;28;20053;-60
2023/09/13 13:46:51;;;;;;;4.95;1.70;;;;;;;;;;5029096;28;20542;-60
2023/09/13 13:49:17;;;;;;;4.95;1.50;;;;;;;;;;5030934;28;20041;-59
2023/09/13 13:51:45;;;;;;;3.42;1.42;;;;;;;;;;5031278;28;20565;-59
2023/09/13 13:54:11;;;;;;;5.22;1.50;;;;;;;;;;5030953;28;20041;-59
2023/09/13 13:56:40;;;;;;;4.97;1.27;;;;;;;;;;5030303;28;20057;-60
2023/09/13 13:59:08;;;;;;;6.18;1.83;;;;;;;;;;5030732;28;20053;-60
2023/09/13 14:01:34;;;;;;;6.53;1.80;;;;;;;;;;5030868;28;20503;-60
2023/09/13 14:04:00;;;;;;;6.78;1.85;;;;;;;;;;5030807;28;20067;-59
2023/09/13 14:06:26;;;;;;;4.57;1.10;;;;;;;;;;5030185;28;20480;-60
2023/09/13 14:08:52;;;;;;;4.82;1.40;;;;;;;;;;5030955;28;20072;-60
2023/09/13 14:11:18;;;;;;;8.17;1.70;;;;;;;;;;5030739;28;20049;-60
2023/09/13 14:13:44;;;;;;;6.15;1.60;;;;;;;;;;5030751;28;20037;-59
2023/09/13 14:16:10;;;;;;;8.60;2.13;;;;;;;;;;5029475;28;20049;-62
2023/09/13 14:18:36;;;;;;;6.10;1.80;;;;;;;;;;5030416;28;20397;-60
2023/09/13 14:21:03;;;;;;;6.72;1.77;;;;;;;;;;5030464;28;20052;-59
2023/09/13 14:23:29;;;;;;;7.10;1.85;;;;;;;;;;5030464;28;20124;-59
2023/09/13 14:25:55;;;;;;;6.10;2.13;;;;;;;;;;5030338;28;20128;-59
2023/09/13 14:28:21;;;;;;;6.68;2.10;;;;;;;;;;5030035;28;20053;-60
2023/09/13 14:30:48;;;;;;;6.40;1.73;;;;;;;;;;5030366;28;20045;-59